Brant Rock, Massachusetts
Current Conditions -  °F | °C
As of 1:15 AM on Monday 22 Dec 2014 (Local Time) from KGHG Reporting Station
Overcast Overcast  
Wind Chill: 37°   Ceiling: 1500
Heat Index: 43°   Visibility: 10mi
Dew Point: 37°   Wind: 9mph
Humidity: 81%   Direction: 50°NE
Pressure: 30.35"   Gusts: NA
Location:  42.09°N, 70.64°W
Report Text: KGHG 220615Z AUTO 05008KT 10SM BKN015 BKN020 OVC026 06/03 A3035 RMK AO2
Loading
Personal Weather Stations






























Interactive Weather Map New forecast layout! Learn more

10-Day Weather Forecast

Advertisements
Track Severe Weather on mobile